Time;durP1;ratioP1;P1;durP2;ratioP2;P2;SDS_P1;SDS_P2;PMS_P1;PMS_P2;Temp;Humidity;BMP_temperature;BMP_pressure;BME280_temperature;BME280_humidity;BME280_pressure;Samples;Min_cycle;Max_cycle;Signal;HPM_P1;HPM_P2
2021/05/05 00:00:25;;;;;;;5.95;3.10;;;12.90;90.80;;;;;;5009994;28;20369;-70
2021/05/05 00:02:52;;;;;;;4.28;2.40;;;12.80;90.70;;;;;;4999023;28;20983;-72
2021/05/05 00:05:18;;;;;;;6.75;3.28;;;12.80;90.90;;;;;;5018267;28;20034;-72
2021/05/05 00:07:43;;;;;;;6.85;3.05;;;12.80;91.10;;;;;;5020231;28;20033;-72
2021/05/05 00:10:11;;;;;;;7.30;2.75;;;12.60;91.10;;;;;;5022518;28;20025;-72
2021/05/05 00:12:37;;;;;;;9.50;3.30;;;12.60;91.20;;;;;;5017593;28;20041;-70
2021/05/05 00:15:22;;;;;;;6.35;3.00;;;12.60;91.50;;;;;;5011674;28;20432;-71
2021/05/05 00:17:48;;;;;;;7.13;3.38;;;12.60;91.30;;;;;;4999581;28;20408;-72
2021/05/05 00:20:15;;;;;;;5.72;3.30;;;12.70;91.70;;;;;;4997956;28;20045;-72
2021/05/05 00:22:41;;;;;;;7.93;3.22;;;12.70;91.90;;;;;;5007788;28;20038;-72
2021/05/05 00:25:09;;;;;;;10.57;3.92;;;12.60;92.10;;;;;;4997934;28;20132;-72
2021/05/05 00:27:34;;;;;;;6.28;3.17;;;12.60;92.40;;;;;;4997790;28;20072;-72
2021/05/05 00:30:00;;;;;;;6.78;2.90;;;12.30;92.80;;;;;;4998260;28;20128;-71
2021/05/05 00:32:26;;;;;;;7.60;2.58;;;12.00;93.00;;;;;;5005011;28;20433;-72
2021/05/05 00:34:52;;;;;;;5.38;3.10;;;12.00;92.80;;;;;;4998907;28;20578;-72
2021/05/05 00:37:18;;;;;;;8.10;2.78;;;12.20;92.30;;;;;;4999790;28;20029;-72
2021/05/05 00:39:44;;;;;;;4.75;2.70;;;12.30;92.20;;;;;;4996702;28;20101;-72
2021/05/05 00:42:10;;;;;;;4.97;2.95;;;12.20;92.30;;;;;;5001464;28;20040;-72
2021/05/05 00:44:35;;;;;;;10.43;3.03;;;12.20;92.50;;;;;;5002037;28;21768;-72
2021/05/05 00:47:01;;;;;;;4.15;2.60;;;12.30;92.30;;;;;;4997177;28;20527;-72
2021/05/05 00:49:27;;;;;;;6.75;3.13;;;12.20;92.70;;;;;;4997726;28;20126;-70
2021/05/05 00:51:53;;;;;;;6.35;2.85;;;12.20;92.50;;;;;;4999101;28;20037;-72
2021/05/05 00:54:19;;;;;;;6.25;2.60;;;12.10;92.50;;;;;;5004074;28;20029;-72
2021/05/05 00:56:45;;;;;;;7.72;3.55;;;12.10;92.60;;;;;;4997222;28;20776;-71
2021/05/05 00:59:12;;;;;;;8.18;3.85;;;12.20;92.50;;;;;;4998524;28;20519;-72
2021/05/05 01:01:40;;;;;;;5.82;2.75;;;12.20;92.40;;;;;;4998786;28;20041;-70
2021/05/05 01:04:06;;;;;;;5.53;2.90;;;12.30;92.50;;;;;;5003493;28;20429;-72
2021/05/05 01:06:33;;;;;;;8.15;3.30;;;12.10;92.60;;;;;;5004427;28;20748;-72
2021/05/05 01:08:59;;;;;;;5.60;3.10;;;12.20;92.50;;;;;;4996074;28;20045;-72
2021/05/05 01:11:27;;;;;;;8.35;3.53;;;12.20;92.80;;;;;;4999416;28;20058;-72
2021/05/05 01:13:53;;;;;;;5.65;2.92;;;12.20;92.80;;;;;;4998580;28;20424;-71
2021/05/05 01:16:19;;;;;;;5.38;3.05;;;12.00;93.00;;;;;;5003207;28;20030;-72
2021/05/05 01:18:45;;;;;;;5.60;2.67;;;12.20;92.80;;;;;;4996708;28;20075;-72
2021/05/05 01:21:11;;;;;;;6.63;3.47;;;12.10;93.10;;;;;;5003783;28;20025;-71
2021/05/05 01:23:37;;;;;;;6.63;3.65;;;12.00;93.40;;;;;;4998219;28;20040;-72
2021/05/05 01:26:03;;;;;;;6.13;3.30;;;11.80;93.70;;;;;;5001892;28;20051;-72
2021/05/05 01:28:38;;;;;;;7.15;3.35;;;11.90;93.60;;;;;;4999234;28;21967;-72
2021/05/05 01:31:05;;;;;;;8.57;3.03;;;11.90;93.60;;;;;;4997895;28;20099;-72
2021/05/05 01:33:31;;;;;;;8.85;3.05;;;11.90;93.60;;;;;;4997789;28;20105;-72
2021/05/05 01:35:56;;;;;;;5.90;3.05;;;11.70;94.00;;;;;;5000717;28;21034;-72
2021/05/05 01:38:22;;;;;;;6.28;2.90;;;11.80;93.90;;;;;;4996843;28;20017;-72
2021/05/05 01:40:49;;;;;;;8.70;3.42;;;11.80;94.10;;;;;;5004522;28;20100;-72
2021/05/05 01:43:14;;;;;;;7.47;3.33;;;11.70;94.20;;;;;;5002973;28;20104;-72
2021/05/05 01:45:40;;;;;;;8.30;3.90;;;11.60;94.70;;;;;;4994824;28;20042;-72
2021/05/05 01:48:08;;;;;;;5.68;3.22;;;11.60;94.60;;;;;;4999051;28;20038;-72
2021/05/05 01:50:34;;;;;;;5.68;2.70;;;11.50;95.00;;;;;;4998310;28;20445;-72
2021/05/05 01:52:59;;;;;;;7.93;3.55;;;11.50;95.30;;;;;;4995070;28;20152;-72
2021/05/05 01:55:25;;;;;;;6.72;2.55;;;11.30;95.70;;;;;;4996623;28;20057;-72
2021/05/05 01:57:51;;;;;;;10.48;3.30;;;11.30;95.60;;;;;;4997119;28;20064;-72
2021/05/05 02:00:20;;;;;;;5.70;2.92;;;11.30;95.80;;;;;;5001100;28;20037;-71
2021/05/05 02:02:46;;;;;;;6.50;3.63;;;11.40;95.50;;;;;;5001720;28;20036;-72
2021/05/05 02:05:13;;;;;;;10.88;3.72;;;11.40;95.70;;;;;;5002226;28;20030;-72
2021/05/05 02:07:39;;;;;;;7.15;3.50;;;11.40;95.70;;;;;;5006835;28;20053;-72
2021/05/05 02:10:11;;;;;;;6.25;2.75;;;11.30;96.20;;;;;;4999346;28;20042;-73
2021/05/05 02:12:37;;;;;;;8.07;3.35;;;11.30;96.60;;;;;;5004668;28;20049;-72
2021/05/05 02:15:07;;;;;;;7.45;3.90;;;11.10;97.10;;;;;;4997498;28;20057;-72
2021/05/05 02:17:33;;;;;;;10.52;3.55;;;11.10;97.10;;;;;;4996483;28;20484;-72
2021/05/05 02:19:59;;;;;;;6.63;3.70;;;11.30;96.40;;;;;;5004359;28;20029;-72
2021/05/05 02:22:24;;;;;;;7.68;3.17;;;11.50;96.60;;;;;;5005662;28;20064;-72
2021/05/05 02:24:50;;;;;;;6.47;3.80;;;11.40;96.70;;;;;;4994697;28;20029;-71
2021/05/05 02:27:16;;;;;;;7.97;3.47;;;11.20;96.40;;;;;;4998090;28;22140;-72
2021/05/05 02:29:42;;;;;;;7.85;3.67;;;11.20;96.70;;;;;;4996301;28;20034;-72
2021/05/05 02:32:12;;;;;;;8.32;3.15;;;11.20;97.20;;;;;;4995425;28;20036;-72
2021/05/05 02:34:38;;;;;;;5.75;3.55;;;11.10;97.20;;;;;;5001695;28;20061;-72
2021/05/05 02:37:09;;;;;;;7.05;3.60;;;11.10;97.30;;;;;;4998767;28;21318;-72
2021/05/05 02:39:40;;;;;;;7.22;3.92;;;11.00;97.40;;;;;;4996515;28;20026;-72
2021/05/05 02:42:07;;;;;;;6.20;3.47;;;11.10;97.10;;;;;;4996761;28;20022;-72
2021/05/05 02:44:33;;;;;;;9.07;3.95;;;11.10;97.10;;;;;;5002800;28;20033;-72
2021/05/05 02:47:02;;;;;;;7.55;3.13;;;11.20;96.90;;;;;;5000771;28;20033;-72
2021/05/05 02:49:28;;;;;;;7.65;3.03;;;11.00;97.60;;;;;;4995616;28;20393;-72
2021/05/05 02:51:54;;;;;;;7.35;4.30;;;10.90;98.00;;;;;;4993853;28;20092;-72
2021/05/05 02:54:19;;;;;;;6.78;3.42;;;10.80;98.30;;;;;;4998937;28;20029;-72
2021/05/05 02:56:45;;;;;;;7.88;3.42;;;10.70;98.30;;;;;;4996423;28;20037;-72
2021/05/05 02:59:11;;;;;;;8.43;3.83;;;10.70;98.40;;;;;;4994351;28;20029;-72
2021/05/05 03:01:36;;;;;;;12.23;3.80;;;10.50;98.90;;;;;;4994130;28;21199;-72
2021/05/05 03:04:03;;;;;;;8.25;3.80;;;10.60;98.60;;;;;;4986694;28;20037;-72
2021/05/05 03:06:30;;;;;;;5.50;3.28;;;10.50;98.50;;;;;;4991730;28;20508;-72
2021/05/05 03:08:56;;;;;;;5.85;3.55;;;10.60;98.50;;;;;;4988759;28;20508;-72
2021/05/05 03:11:22;;;;;;;6.05;3.28;;;10.50;98.90;;;;;;4966681;28;620482;-72
2021/05/05 03:13:48;;;;;;;6.82;3.97;;;10.50;99.30;;;;;;4986716;28;20380;-72
2021/05/05 03:16:14;;;;;;;9.18;3.88;;;10.60;99.30;;;;;;4991046;28;20121;-72
2021/05/05 03:18:39;;;;;;;11.50;4.80;;;10.40;99.60;;;;;;4992932;28;20030;-71
2021/05/05 03:21:05;;;;;;;7.80;4.07;;;10.30;99.70;;;;;;4987114;28;20034;-73
2021/05/05 03:23:31;;;;;;;7.20;3.58;;;10.30;99.50;;;;;;4987751;28;20030;-71
2021/05/05 03:25:57;;;;;;;7.90;3.40;;;10.30;99.70;;;;;;4989489;28;20261;-72
2021/05/05 03:28:22;;;;;;;5.90;3.45;;;10.30;99.70;;;;;;4994693;28;20033;-72
2021/05/05 03:30:48;;;;;;;7.60;3.20;;;10.20;99.90;;;;;;4990551;28;20045;-72
2021/05/05 03:33:14;;;;;;;6.00;3.22;;;10.20;99.90;;;;;;4988338;28;20025;-72
2021/05/05 03:35:40;;;;;;;8.65;4.03;;;10.30;99.50;;;;;;4989573;28;20463;-72
2021/05/05 03:38:06;;;;;;;7.93;3.70;;;10.30;99.80;;;;;;4988051;28;20949;-71
2021/05/05 03:40:32;;;;;;;6.68;3.65;;;10.30;99.80;;;;;;5004920;28;20037;-71
2021/05/05 03:42:58;;;;;;;9.98;4.40;;;10.30;99.90;;;;;;5009263;28;20593;-72
2021/05/05 03:45:24;;;;;;;7.13;4.65;;;10.20;99.90;;;;;;5005104;28;20030;-71
2021/05/05 03:47:50;;;;;;;9.63;4.30;;;10.10;99.90;;;;;;4997138;28;20499;-71
2021/05/05 03:50:17;;;;;;;8.75;4.95;;;10.00;99.90;;;;;;4987692;28;20625;-72
2021/05/05 03:52:42;;;;;;;7.53;3.65;;;10.00;99.90;;;;;;4997431;28;20034;-71
2021/05/05 03:55:09;;;;;;;8.13;3.80;;;10.00;99.90;;;;;;5001425;28;20075;-71
2021/05/05 03:57:34;;;;;;;9.00;3.75;;;10.10;99.90;;;;;;5005322;28;20542;-71
2021/05/05 04:00:00;;;;;;;7.18;4.13;;;10.00;99.90;;;;;;5017932;28;20075;-72
2021/05/05 04:02:26;;;;;;;6.40;4.10;;;10.00;99.90;;;;;;5008580;28;20045;-71
2021/05/05 04:04:52;;;;;;;7.88;3.95;;;10.00;99.90;;;;;;5000575;28;20029;-71
2021/05/05 04:07:17;;;;;;;7.13;3.45;;;10.00;99.90;;;;;;4994238;28;20098;-72
2021/05/05 04:09:43;;;;;;;12.00;4.20;;;9.90;99.90;;;;;;4995556;28;20113;-71
2021/05/05 04:12:11;;;;;;;6.32;3.70;;;9.70;99.90;;;;;;4994900;28;20077;-71
2021/05/05 04:14:37;;;;;;;6.50;3.22;;;9.60;99.90;;;;;;4995109;28;20033;-72
2021/05/05 04:17:03;;;;;;;8.07;4.25;;;9.60;99.90;;;;;;4992911;28;20080;-71
2021/05/05 04:19:28;;;;;;;8.65;3.85;;;9.50;99.90;;;;;;5002893;28;20139;-72
2021/05/05 04:21:55;;;;;;;7.95;4.43;;;9.50;99.90;;;;;;5008725;28;20438;-71
2021/05/05 04:24:20;;;;;;;7.20;4.30;;;9.70;99.90;;;;;;5022239;28;20033;-71
2021/05/05 04:26:48;;;;;;;9.02;3.90;;;9.80;99.90;;;;;;4996113;28;20477;-72
2021/05/05 04:29:14;;;;;;;7.03;3.83;;;9.60;99.90;;;;;;4990026;28;20050;-71
2021/05/05 04:31:40;;;;;;;8.73;4.47;;;9.50;99.90;;;;;;4991098;28;21561;-72
2021/05/05 04:34:06;;;;;;;9.85;3.88;;;9.80;99.90;;;;;;4991016;28;20041;-71
2021/05/05 04:36:32;;;;;;;7.55;4.03;;;9.90;99.90;;;;;;4996855;28;20110;-72
2021/05/05 04:38:58;;;;;;;7.28;4.50;;;9.90;99.90;;;;;;4989190;28;20030;-71
2021/05/05 04:41:23;;;;;;;9.35;4.30;;;9.90;99.90;;;;;;4992420;28;20645;-72
2021/05/05 04:43:49;;;;;;;8.30;5.13;;;10.00;99.90;;;;;;4990523;28;20030;-72
2021/05/05 04:46:15;;;;;;;8.85;4.60;;;9.90;99.90;;;;;;4999039;28;20022;-72
2021/05/05 04:48:41;;;;;;;8.68;4.70;;;10.00;99.90;;;;;;4991391;28;20695;-72
2021/05/05 04:51:07;;;;;;;7.75;4.28;;;10.00;99.90;;;;;;4989913;28;20493;-72
2021/05/05 04:53:33;;;;;;;7.70;4.50;;;9.90;99.90;;;;;;4990565;28;20037;-72
2021/05/05 04:56:00;;;;;;;12.88;5.35;;;10.00;99.90;;;;;;4999014;28;20021;-71
2021/05/05 04:58:25;;;;;;;15.77;4.72;;;10.10;99.90;;;;;;5011067;28;20095;-71
2021/05/05 05:00:52;;;;;;;8.88;4.93;;;10.10;99.90;;;;;;5007491;28;21600;-71
2021/05/05 05:03:39;;;;;;;8.82;5.15;;;10.00;99.90;;;;;;4987563;28;20313;-72
2021/05/05 05:06:22;;;;;;;8.77;4.35;;;10.20;99.90;;;;;;5001136;28;21249;-72
2021/05/05 05:09:02;;;;;;;8.57;5.75;;;10.10;99.90;;;;;;4989281;28;20026;-72
2021/05/05 05:11:28;;;;;;;8.32;4.90;;;10.30;99.90;;;;;;4995446;28;20447;-72
2021/05/05 05:13:54;;;;;;;12.00;5.70;;;10.30;99.90;;;;;;4992580;28;20033;-73
2021/05/05 05:16:20;;;;;;;8.48;4.10;;;10.30;99.90;;;;;;4991530;28;20040;-73
2021/05/05 05:18:45;;;;;;;10.13;4.85;;;10.40;99.90;;;;;;4994823;28;20034;-72
2021/05/05 05:21:11;;;;;;;8.82;4.22;;;10.30;99.90;;;;;;4987958;28;20025;-71
2021/05/05 05:23:37;;;;;;;10.23;4.32;;;10.50;99.90;;;;;;4999698;28;20040;-71
2021/05/05 05:26:03;;;;;;;12.27;5.47;;;10.60;99.90;;;;;;5001482;28;20545;-69
2021/05/05 05:28:28;;;;;;;8.52;4.50;;;10.70;99.90;;;;;;4990033;28;20030;-71
2021/05/05 05:30:54;;;;;;;11.18;4.57;;;10.90;99.90;;;;;;5010267;28;20033;-70
2021/05/05 05:33:20;;;;;;;10.32;4.82;;;11.00;99.90;;;;;;4994541;28;20440;-70
2021/05/05 05:35:46;;;;;;;9.10;4.63;;;11.00;99.90;;;;;;4997090;28;20084;-71
2021/05/05 05:38:12;;;;;;;10.52;5.97;;;11.10;99.90;;;;;;4990358;28;20800;-72
2021/05/05 05:40:39;;;;;;;9.95;4.65;;;11.30;99.90;;;;;;4990702;28;20741;-71
2021/05/05 05:43:04;;;;;;;10.73;5.30;;;11.50;99.90;;;;;;4994177;28;20334;-70
2021/05/05 05:45:30;;;;;;;8.35;4.88;;;11.60;99.90;;;;;;4989848;28;20033;-70
2021/05/05 05:47:57;;;;;;;9.10;5.07;;;11.70;99.90;;;;;;4995352;28;20168;-71
2021/05/05 05:50:23;;;;;;;11.63;5.43;;;11.80;99.90;;;;;;4988301;28;20049;-71
2021/05/05 05:52:49;;;;;;;7.90;4.80;;;11.80;99.90;;;;;;4989042;28;20029;-70
2021/05/05 05:55:17;;;;;;;12.57;5.63;;;12.00;99.90;;;;;;4988628;28;20033;-71
2021/05/05 05:57:44;;;;;;;15.90;7.97;;;12.10;99.90;;;;;;4996965;28;20029;-71
2021/05/05 06:00:15;;;;;;;25.02;12.38;;;12.20;99.90;;;;;;4989263;28;20388;-70
2021/05/05 06:02:41;;;;;;;40.25;14.40;;;12.10;99.90;;;;;;4989229;28;20029;-71
2021/05/05 06:05:07;;;;;;;23.38;12.27;;;12.30;99.90;;;;;;4993886;28;20037;-70
2021/05/05 06:07:33;;;;;;;13.88;8.75;;;12.30;99.90;;;;;;5013994;28;20113;-71
2021/05/05 06:09:59;;;;;;;16.98;6.63;;;12.20;99.90;;;;;;4988633;28;20993;-71
2021/05/05 06:12:25;;;;;;;10.82;5.32;;;12.20;99.90;;;;;;4990547;28;20112;-71
2021/05/05 06:14:51;;;;;;;13.60;6.07;;;12.20;99.90;;;;;;4991468;28;20057;-71
2021/05/05 06:17:18;;;;;;;9.45;6.05;;;12.30;99.90;;;;;;4994721;28;20037;-70
2021/05/05 06:19:44;;;;;;;9.88;5.80;;;12.50;99.90;;;;;;4990685;28;20399;-72
2021/05/05 06:22:10;;;;;;;10.80;6.30;;;12.70;99.90;;;;;;4987630;28;20022;-71
2021/05/05 06:24:35;;;;;;;10.80;7.18;;;12.80;99.90;;;;;;4992603;28;20076;-72
2021/05/05 06:27:01;;;;;;;10.45;7.18;;;12.90;99.90;;;;;;4987893;28;20025;-70
2021/05/05 06:29:27;;;;;;;13.50;6.97;;;13.10;99.90;;;;;;4987358;28;20037;-70
2021/05/05 06:31:53;;;;;;;13.07;7.03;;;13.10;99.80;;;;;;4998442;28;20107;-71
2021/05/05 06:34:19;;;;;;;11.15;7.47;;;13.30;99.90;;;;;;4998444;28;20036;-71
2021/05/05 06:36:44;;;;;;;9.68;6.80;;;13.60;99.50;;;;;;5004121;28;20034;-71
2021/05/05 06:39:11;;;;;;;15.40;7.75;;;13.60;99.00;;;;;;5002449;28;20057;-71
2021/05/05 06:41:39;;;;;;;10.70;7.25;;;13.80;98.60;;;;;;4991455;28;20025;-70
2021/05/05 06:44:05;;;;;;;14.05;7.45;;;13.70;99.30;;;;;;4987368;28;20360;-71
2021/05/05 06:46:33;;;;;;;17.15;7.65;;;13.50;98.80;;;;;;4992328;28;20026;-70
2021/05/05 06:48:59;;;;;;;14.35;7.18;;;13.30;99.20;;;;;;4988337;28;20037;-71
2021/05/05 06:51:25;;;;;;;9.73;5.93;;;13.60;98.70;;;;;;4988387;28;20033;-71
2021/05/05 06:53:51;;;;;;;10.52;6.60;;;13.90;98.10;;;;;;4988078;28;20030;-70
2021/05/05 06:56:17;;;;;;;12.10;7.13;;;14.10;97.70;;;;;;4990019;28;20034;-70
2021/05/05 06:58:43;;;;;;;12.07;6.38;;;14.30;97.50;;;;;;4993279;28;20128;-72
2021/05/05 07:01:09;;;;;;;10.88;6.38;;;14.50;97.30;;;;;;4989198;28;20063;-71
2021/05/05 07:03:35;;;;;;;13.15;7.18;;;14.10;97.30;;;;;;4987469;28;20037;-71
2021/05/05 07:06:02;;;;;;;12.30;6.75;;;14.00;97.90;;;;;;4990321;28;20033;-71
2021/05/05 07:08:27;;;;;;;11.20;6.43;;;13.90;98.10;;;;;;4996030;28;20784;-70
2021/05/05 07:10:53;;;;;;;16.08;6.72;;;13.70;98.70;;;;;;4989287;28;20045;-71
2021/05/05 07:13:20;;;;;;;18.38;7.03;;;13.70;99.10;;;;;;4992711;28;20065;-71
2021/05/05 07:15:46;;;;;;;12.50;6.40;;;13.80;99.70;;;;;;4988611;28;20372;-71
2021/05/05 07:18:12;;;;;;;16.90;6.55;;;14.50;98.90;;;;;;4993667;28;20030;-71
2021/05/05 07:20:37;;;;;;;10.60;6.57;;;15.00;97.10;;;;;;4989212;28;20026;-70
2021/05/05 07:23:03;;;;;;;11.05;6.70;;;16.20;95.60;;;;;;4993102;28;20034;-71
2021/05/05 07:25:29;;;;;;;9.55;6.43;;;17.10;94.00;;;;;;4991536;28;20072;-70
2021/05/05 07:27:54;;;;;;;12.38;6.97;;;18.20;92.40;;;;;;5002858;28;20076;-70
2021/05/05 07:30:21;;;;;;;14.05;6.47;;;19.50;91.00;;;;;;4999829;28;20060;-71
2021/05/05 07:32:47;;;;;;;11.25;5.82;;;19.80;89.60;;;;;;4987600;28;20061;-71
2021/05/05 07:35:14;;;;;;;13.02;6.22;;;20.10;88.70;;;;;;4994430;28;20093;-70
2021/05/05 07:48:10;;;;;;;10.52;6.28;;;19.40;88.60;;;;;;4995039;28;20811;-71
2021/05/05 07:50:36;;;;;;;13.38;7.10;;;16.90;90.80;;;;;;4993728;28;20036;-70
2021/05/05 07:53:02;;;;;;;12.57;6.32;;;15.70;93.60;;;;;;5001049;28;20029;-71
2021/05/05 07:55:29;;;;;;;19.67;6.82;;;15.50;94.20;;;;;;4991809;28;20044;-71
2021/05/05 07:57:55;;;;;;;9.63;7.00;;;15.40;94.60;;;;;;4992710;28;20486;-71
2021/05/05 08:00:21;;;;;;;12.05;6.60;;;15.10;94.50;;;;;;4993182;28;20021;-70
2021/05/05 08:02:47;;;;;;;11.23;6.45;;;15.00;95.10;;;;;;5004106;28;20026;-71
2021/05/05 08:05:13;;;;;;;10.18;6.38;;;14.70;95.50;;;;;;4991916;28;20534;-70
2021/05/05 08:07:39;;;;;;;18.58;7.50;;;14.50;96.90;;;;;;4993568;28;20025;-70
2021/05/05 08:10:07;;;;;;;13.55;7.03;;;14.40;97.00;;;;;;4993304;28;20052;-70
2021/05/05 08:12:33;;;;;;;12.02;6.88;;;14.70;96.80;;;;;;4999437;28;20046;-71
2021/05/05 08:14:59;;;;;;;10.45;6.45;;;15.90;95.30;;;;;;4992962;28;22111;-71
2021/05/05 08:17:25;;;;;;;14.30;6.90;;;17.10;93.50;;;;;;4994939;28;20025;-70
2021/05/05 08:19:50;;;;;;;12.10;6.50;;;17.70;92.00;;;;;;4991045;28;21084;-71
2021/05/05 08:22:16;;;;;;;9.73;6.55;;;17.60;92.60;;;;;;4993296;28;20034;-71
2021/05/05 08:24:42;;;;;;;10.43;6.03;;;18.50;91.90;;;;;;4990607;28;20040;-70
2021/05/05 08:27:08;;;;;;;11.00;5.75;;;18.40;91.70;;;;;;4997199;28;20033;-71
2021/05/05 08:29:34;;;;;;;12.75;6.90;;;18.10;92.10;;;;;;4992872;28;20894;-70
2021/05/05 08:32:02;;;;;;;9.27;6.00;;;18.10;92.00;;;;;;4992045;28;20057;-70
2021/05/05 08:34:28;;;;;;;13.57;6.35;;;17.50;93.00;;;;;;4994330;28;20033;-71
2021/05/05 08:36:55;;;;;;;9.27;5.50;;;17.90;92.30;;;;;;4993306;28;20129;-72
2021/05/05 08:39:21;;;;;;;12.02;6.15;;;17.60;92.10;;;;;;4990139;28;20359;-71
2021/05/05 08:41:47;;;;;;;10.77;6.38;;;17.40;92.30;;;;;;4992406;28;20049;-71
2021/05/05 08:44:14;;;;;;;11.88;5.30;;;17.00;93.40;;;;;;4992378;28;20034;-71
2021/05/05 08:46:42;;;;;;;12.85;6.32;;;16.90;93.00;;;;;;4994153;28;20021;-70
2021/05/05 08:49:08;;;;;;;11.82;6.45;;;16.90;93.90;;;;;;4993293;28;20034;-71
2021/05/05 08:51:36;;;;;;;10.57;4.95;;;17.00;93.40;;;;;;4989273;28;20042;-70
2021/05/05 08:54:02;;;;;;;8.85;4.97;;;17.10;93.50;;;;;;4990649;28;20658;-71
2021/05/05 08:56:35;;;;;;;18.23;5.45;;;17.30;93.90;;;;;;4994993;28;20295;-71
2021/05/05 08:59:13;;;;;;;10.88;4.55;;;17.00;92.90;;;;;;4991302;28;20026;-71
2021/05/05 09:01:39;;;;;;;6.40;4.00;;;16.90;92.70;;;;;;4993674;28;20036;-70
2021/05/05 09:04:06;;;;;;;7.18;3.83;;;17.00;91.60;;;;;;4991938;28;20038;-70
2021/05/05 09:06:53;;;;;;;6.57;4.07;;;17.00;92.10;;;;;;4992438;28;20499;-70
2021/05/05 09:09:35;;;;;;;9.45;4.63;;;17.20;92.00;;;;;;5000966;28;20038;-71
2021/05/05 09:12:15;;;;;;;7.55;4.40;;;17.50;92.40;;;;;;4995813;28;20049;-71
2021/05/05 09:15:05;;;;;;;8.32;3.50;;;17.40;91.80;;;;;;4998880;28;20100;-71
2021/05/05 09:17:44;;;;;;;6.55;3.65;;;17.60;92.60;;;;;;4990489;28;20045;-70
2021/05/05 09:20:10;;;;;;;10.30;3.90;;;17.20;91.70;;;;;;4989846;28;20057;-71
2021/05/05 09:22:44;;;;;;;6.05;3.63;;;16.90;92.40;;;;;;4991195;28;20619;-70
2021/05/05 09:25:13;;;;;;;8.43;2.85;;;16.90;91.70;;;;;;4994274;28;20026;-70
2021/05/05 09:27:40;;;;;;;6.72;3.00;;;16.80;92.00;;;;;;4992604;28;20044;-70
2021/05/05 09:30:17;;;;;;;6.93;2.72;;;17.00;91.60;;;;;;4991684;28;21812;-71
2021/05/05 09:32:54;;;;;;;7.07;2.88;;;17.00;91.70;;;;;;4990110;28;21073;-71
2021/05/05 09:35:32;;;;;;;6.82;3.33;;;17.00;92.00;;;;;;4993486;28;20627;-71
2021/05/05 09:38:03;;;;;;;6.82;3.10;;;17.00;92.10;;;;;;4990564;28;20034;-69
2021/05/05 09:40:29;;;;;;;5.88;3.00;;;17.10;92.20;;;;;;4991552;28;20030;-70
2021/05/05 09:42:55;;;;;;;6.03;3.22;;;17.30;91.80;;;;;;4990481;28;20061;-70
2021/05/05 09:45:30;;;;;;;7.03;2.63;;;17.40;91.10;;;;;;4998671;28;20036;-71
2021/05/05 09:48:00;;;;;;;7.05;2.67;;;17.50;91.00;;;;;;4988925;28;20088;-71
2021/05/05 09:50:30;;;;;;;9.98;2.90;;;17.40;91.70;;;;;;4989187;28;20493;-71
2021/05/05 09:53:16;;;;;;;7.15;3.40;;;17.30;91.20;;;;;;4994120;28;20070;-71
2021/05/05 09:55:45;;;;;;;5.35;3.08;;;17.40;91.10;;;;;;4992649;28;20017;-70
2021/05/05 09:58:31;;;;;;;6.32;2.30;;;17.70;91.70;;;;;;4989071;28;20029;-71
2021/05/05 10:01:06;;;;;;;8.13;2.80;;;18.10;91.40;;;;;;4992226;28;20087;-71
2021/05/05 10:03:35;;;;;;;5.63;2.75;;;18.80;90.50;;;;;;4997612;28;20038;-71
2021/05/05 10:06:28;;;;;;;7.47;3.15;;;18.80;90.20;;;;;;4991151;28;20041;-71
2021/05/05 10:09:07;;;;;;;5.85;2.45;;;19.60;90.00;;;;;;4990613;28;20441;-70
2021/05/05 10:11:38;;;;;;;5.68;2.40;;;19.40;88.50;;;;;;4991086;28;20953;-69
2021/05/05 10:14:12;;;;;;;5.40;2.22;;;18.90;87.50;;;;;;4996470;28;20045;-71
2021/05/05 10:16:42;;;;;;;7.63;2.42;;;19.00;89.00;;;;;;4988590;28;20038;-70
2021/05/05 10:19:19;;;;;;;4.68;2.03;;;19.10;88.40;;;;;;4990557;28;20034;-71
2021/05/05 10:21:53;;;;;;;4.22;1.73;;;18.90;88.70;;;;;;4989771;28;20033;-70
2021/05/05 10:24:20;;;;;;;;;;;19.20;89.40;;;;;;4990289;28;20029;-72
2021/05/05 10:26:47;;;;;;;7.35;1.88;;;19.60;88.00;;;;;;4989063;28;19917;-71
2021/05/05 10:29:14;;;;;;;5.22;2.55;;;19.60;89.40;;;;;;4988418;28;20030;-70
2021/05/05 10:31:41;;;;;;;5.70;2.38;;;19.50;89.30;;;;;;4996717;28;20045;-71
2021/05/05 10:34:15;;;;;;;4.93;1.95;;;20.10;89.00;;;;;;4987555;28;20044;-70
2021/05/05 10:36:47;;;;;;;3.80;1.67;;;20.10;86.60;;;;;;4990623;28;20026;-70
2021/05/05 10:39:19;;;;;;;5.63;1.98;;;19.90;88.20;;;;;;4995895;28;20103;-70
2021/05/05 10:42:06;;;;;;;5.15;1.98;;;19.90;87.80;;;;;;4996111;28;20037;-71
2021/05/05 10:44:45;;;;;;;4.80;2.10;;;19.40;87.40;;;;;;4990008;28;20117;-71
2021/05/05 10:47:30;;;;;;;6.63;1.70;;;19.60;88.80;;;;;;4989695;28;20775;-71
2021/05/05 10:50:06;;;;;;;4.80;1.80;;;19.90;88.60;;;;;;4988252;28;20045;-70
2021/05/05 10:52:35;;;;;;;7.55;1.90;;;19.90;87.10;;;;;;4995943;28;20451;-71
2021/05/05 10:55:03;;;;;;;3.60;1.85;;;20.50;87.70;;;;;;4987006;28;21071;-71
2021/05/05 10:57:30;;;;;;;4.78;2.10;;;20.40;87.30;;;;;;4987475;28;20030;-71
2021/05/05 11:00:03;;;;;;;4.10;1.85;;;19.80;87.20;;;;;;4989496;28;20030;-71
2021/05/05 11:02:38;;;;;;;6.67;2.33;;;19.70;87.80;;;;;;5001687;28;20498;-70
2021/05/05 11:05:11;;;;;;;8.27;2.50;;;19.60;88.10;;;;;;5013970;28;20379;-71
2021/05/05 11:07:51;;;;;;;3.58;2.13;;;19.20;88.80;;;;;;4990237;28;20469;-71
2021/05/05 11:10:32;;;;;;;6.22;2.10;;;19.30;88.50;;;;;;5003335;28;20071;-71
2021/05/05 11:13:18;;;;;;;7.80;1.98;;;19.80;89.60;;;;;;5000203;28;20417;-70
2021/05/05 11:15:44;;;;;;;6.75;2.10;;;19.20;88.70;;;;;;4989865;28;20041;-71
2021/05/05 11:18:28;;;;;;;4.68;2.22;;;19.20;88.50;;;;;;4996019;28;20036;-71
2021/05/05 11:20:55;;;;;;;5.90;2.83;;;19.70;87.30;;;;;;4992823;28;20465;-70
2021/05/05 11:23:36;;;;;;;8.15;4.85;;;20.10;88.00;;;;;;4991368;28;20041;-70
2021/05/05 11:26:24;;;;;;;6.53;2.55;;;20.00;87.30;;;;;;4991849;28;20527;-70
2021/05/05 11:28:50;;;;;;;13.45;3.15;;;19.50;87.40;;;;;;4998282;28;20030;-71
2021/05/05 11:31:16;;;;;;;28.27;3.35;;;19.10;88.40;;;;;;5005993;28;20339;-71
2021/05/05 11:34:01;;;;;;;3.22;1.60;;;19.40;88.30;;;;;;4991890;28;20575;-71
2021/05/05 11:36:27;;;;;;;6.50;2.30;;;19.50;87.00;;;;;;4997542;28;20181;-71
2021/05/05 11:38:52;;;;;;;5.20;2.03;;;19.50;87.50;;;;;;4989752;28;20503;-72
2021/05/05 11:41:21;;;;;;;5.88;1.60;;;19.60;86.90;;;;;;4990389;28;20377;-71
2021/05/05 11:43:48;;;;;;;8.20;2.00;;;19.90;87.80;;;;;;4994707;28;20099;-72
2021/05/05 11:46:14;;;;;;;4.38;2.25;;;19.90;84.80;;;;;;4991564;28;22499;-72
2021/05/05 11:48:42;;;;;;;4.07;1.60;;;20.00;86.60;;;;;;4997313;28;20030;-72
2021/05/05 11:51:17;;;;;;;5.40;1.83;;;19.90;85.60;;;;;;4987956;28;20042;-72
2021/05/05 11:53:43;;;;;;;6.90;1.45;;;20.20;85.90;;;;;;4991090;28;20044;-71
2021/05/05 11:56:23;;;;;;;9.88;1.95;;;20.20;88.10;;;;;;4990457;28;20033;-71
2021/05/05 11:58:58;;;;;;;7.05;1.92;;;20.10;84.80;;;;;;4996694;28;20077;-71
2021/05/05 12:01:27;;;;;;;;;;;20.30;85.30;;;;;;4996330;28;20076;-71
2021/05/05 12:03:53;;;;;;;7.53;2.05;;;20.50;84.90;;;;;;4990369;28;19921;-71
2021/05/05 12:06:18;;;;;;;5.15;1.90;;;20.60;82.80;;;;;;4993811;28;20434;-71
2021/05/05 12:08:47;;;;;;;4.03;1.48;;;20.50;84.90;;;;;;4994052;28;20034;-72
2021/05/05 12:11:12;;;;;;;3.47;1.77;;;20.80;83.00;;;;;;5001794;28;22619;-72
2021/05/05 12:13:40;;;;;;;3.42;1.50;;;20.80;82.60;;;;;;4997054;28;20314;-72
2021/05/05 12:16:28;;;;;;;3.65;1.38;;;20.80;82.90;;;;;;4994415;28;20439;-72
2021/05/05 12:18:54;;;;;;;8.35;1.55;;;20.30;80.80;;;;;;4990394;28;20030;-71
2021/05/05 12:21:24;;;;;;;4.00;1.10;;;20.30;83.20;;;;;;4990099;28;20046;-72
2021/05/05 12:23:55;;;;;;;3.88;1.10;;;20.50;83.40;;;;;;5000090;28;20096;-72
2021/05/05 12:26:25;;;;;;;4.68;1.17;;;21.00;81.90;;;;;;4997861;28;20032;-71
2021/05/05 12:28:59;;;;;;;3.60;1.60;;;20.50;80.90;;;;;;4993203;28;20065;-71
2021/05/05 12:31:30;;;;;;;3.58;1.38;;;20.60;82.20;;;;;;5005444;28;20695;-71
2021/05/05 12:33:57;;;;;;;8.70;2.03;;;20.70;82.20;;;;;;5000832;28;20104;-72
2021/05/05 12:36:28;;;;;;;4.55;1.95;;;20.70;81.10;;;;;;4999537;28;21359;-73
2021/05/05 12:38:59;;;;;;;4.13;1.33;;;20.80;81.70;;;;;;4989382;28;20030;-71
2021/05/05 12:41:27;;;;;;;4.93;1.40;;;20.70;80.80;;;;;;4992068;28;20037;-72
2021/05/05 12:43:58;;;;;;;5.43;1.50;;;21.00;80.70;;;;;;4991774;28;20124;-72
2021/05/05 12:46:55;;;;;;;2.33;0.90;;;21.20;80.40;;;;;;4997668;28;20522;-71
2021/05/05 12:49:26;;;;;;;5.47;1.80;;;21.20;82.10;;;;;;4990527;28;20050;-72
2021/05/05 12:51:52;;;;;;;3.50;1.60;;;21.20;80.00;;;;;;4992760;28;20029;-71
2021/05/05 12:54:45;;;;;;;8.90;1.73;;;20.90;79.80;;;;;;4992449;28;20037;-71
2021/05/05 12:57:18;;;;;;;6.93;1.70;;;20.80;79.10;;;;;;4995425;28;20031;-70
2021/05/05 12:59:45;;;;;;;2.85;1.05;;;21.20;79.80;;;;;;4996708;28;20038;-70
2021/05/05 13:02:16;;;;;;;4.00;1.52;;;21.30;78.10;;;;;;4990746;28;20112;-70